circleci.com alexa rank chart, circleci.com alexa rank daily changes

circleci.com alexa rank chart, circleci.com alexa rank daily changes

circleci.com
Actual rank:
36 022

RANK HISTORY

Date Rank Diff
2018/05/22 36 022 +11 870
2018/05/21 24 152 +11 842
2018/05/20 12 310 +1 354
2018/05/19 10 956 -4 060
2018/05/18 15 016 +1 139
2018/05/17 13 877 +582
2018/05/16 13 295 -15 150
2018/05/15 28 445 -13 298
2018/05/14 41 743 +28 638
2018/05/13 13 105 +1 628
2018/05/12 11 477 +2 323
2018/05/11 9 154 -5 598
2018/05/10 14 752 -866
2018/05/09 15 618 -25 876
2018/05/08 41 494 +14 128
2018/05/07 27 366 +8 067
2018/05/06 19 299 +276
2018/05/05 19 023 +6 277
2018/05/04 12 746 -4 448
2018/05/03 17 194 -1 436
2018/05/02 18 630 -18 311
2018/05/01 36 941 +3 258
2018/04/30 33 683 +19 383
2018/04/29 14 300 -2 699
2018/04/28 16 999 -35 946
2018/04/27 52 945 +41 284
2018/04/26 11 661 +2 330
2018/04/25 9 331 -27 606
2018/04/24 36 937 -16 008
2018/04/23 52 945 +39 398
2018/04/22 13 547 -2 894
2018/04/21 16 441 +3 697
2018/04/20 12 744 -375
2018/04/19 13 119 +2 523
2018/04/18 10 596 -43 058
2018/04/17 53 654 +17 670
2018/04/16 35 984 +23 483
2018/04/15 12 501 -4 524
2018/04/14 17 025 +332
2018/04/13 16 693 +2 569
2018/04/12 14 124 -948
2018/04/11 15 072 -23 610
2018/04/10 38 682 +13 270
2018/04/09 25 412 +9 176
2018/04/08 16 236 +717
2018/04/07 15 519 +1 399
2018/04/06 14 120 -50
2018/04/05 14 170 -1 810
2018/04/04 15 980 -9 324
2018/04/03 25 304 -28 391
2018/04/02 53 695 +35 838
2018/04/01 17 857 +2 725
2018/03/31 15 132 +1 255
2018/03/30 13 877 +2 143
2018/03/29 11 734 -2 228
2018/03/28 13 962 -16 326
2018/03/27 30 288 -2 320
2018/03/26 32 608 +20 630
2018/03/25 11 978 -137
2018/03/24 12 115 -2 974
2018/03/23 15 089

WIDGET FOR YOUR SITE

DOMAINS WITH THE NEAREST RANK

Domain Rank
umi.ru 36 017
onestopenglish.com 36 018
runlikea.pro 36 019
appadvice.com 36 020
mihanyu.com 36 021
circleci.com 36 022
aprenderaprogramar.com 36 023
seriestreaming.ws 36 024
jurovalendo.com.br 36 025
gemroid.com 36 026
xiaoshuoli.com 36 027

DOMAINS WITH THE NEAREST RANK BY TLD .com

Domain Rank
sedoparking.com 36 013
spicybigtits.com 36 015
onestopenglish.com 36 018
appadvice.com 36 020
mihanyu.com 36 021
circleci.com 36 022
aprenderaprogramar.com 36 023
gemroid.com 36 026
xiaoshuoli.com 36 027
humankinetics.com 36 031
nextinpact.com 36 033